< < Back
Terminal Aerodrome Forecast


Current Version              Previous Versions:   1  2  3  4  5  6  7  8  9  

Terminal Aerodrome Forecast

888
FTUS44 KBMX 251132
TAFANB
TAF
KANB 251132Z 2512/2612 07003KT P6SM SKC
     FM251700 16005KT P6SM VCTS SCT050CB SCT250
     FM260100 06003KT P6SM SCT250=



Latest METAR

839
SAUS70 KWBC 260000 RRH
MTRANB
METAR KANB 252353Z AUTO 34010G17KT 1/2SM +TSRA BKN017 BKN046 OVC110
26/22 A3000 RMK AO2 PK WND 20028/2334 WSHFT 2318 RAB34
TSB16E47B52 SLP151 P0062 60062 T02560217 10356 20250
53009


USA.gov is the U.S. government's official web portal to all federal, state and local government web resources and services.